Time;durP1;ratioP1;P1;durP2;ratioP2;P2;SDS_P1;SDS_P2;PMS_P1;PMS_P2;Temp;Humidity;BMP_temperature;BMP_pressure;BME280_temperature;BME280_humidity;BME280_pressure;Samples;Min_cycle;Max_cycle;Signal;HPM_P1;HPM_P2
2023/11/27 00:00:13;;;;;;;4.72;3.25;;;4.00;87.00;;;;;;4999968;28;20049;-66
2023/11/27 00:02:39;;;;;;;4.72;3.58;;;4.00;87.00;;;;;;4999684;28;20026;-65
2023/11/27 00:05:05;;;;;;;5.53;3.60;;;4.00;87.00;;;;;;5004022;28;20064;-65
2023/11/27 00:07:30;;;;;;;5.80;3.90;;;4.00;87.10;;;;;;5003604;28;20061;-65
2023/11/27 00:09:56;;;;;;;6.30;4.15;;;3.90;87.20;;;;;;5004110;28;20132;-65
2023/11/27 00:12:22;;;;;;;6.03;3.75;;;3.90;87.30;;;;;;5000065;28;20049;-66
2023/11/27 00:14:47;;;;;;;6.20;4.13;;;3.90;87.20;;;;;;5004263;28;20567;-66
2023/11/27 00:17:13;;;;;;;5.10;3.75;;;3.90;87.20;;;;;;5004823;28;20121;-65
2023/11/27 00:19:38;;;;;;;6.20;4.03;;;3.90;87.20;;;;;;5002196;28;20116;-65
2023/11/27 00:22:04;;;;;;;6.65;3.78;;;3.90;87.20;;;;;;5000298;28;20049;-65
2023/11/27 00:24:30;;;;;;;6.97;4.28;;;3.90;87.20;;;;;;4998949;28;20412;-65
2023/11/27 00:26:55;;;;;;;7.03;3.80;;;3.80;87.20;;;;;;5000669;28;20117;-65
2023/11/27 00:29:21;;;;;;;3.75;3.40;;;3.80;87.30;;;;;;5002926;28;20033;-65
2023/11/27 00:31:46;;;;;;;6.95;3.50;;;3.80;87.50;;;;;;5002474;28;20049;-65
2023/11/27 00:34:12;;;;;;;5.70;4.30;;;3.80;87.50;;;;;;5000995;28;20096;-65
2023/11/27 00:36:38;;;;;;;4.13;3.60;;;3.80;87.50;;;;;;5003496;28;20037;-66
2023/11/27 00:39:08;;;;;;;4.88;3.65;;;3.80;87.50;;;;;;5003623;28;20398;-66
2023/11/27 00:41:35;;;;;;;5.32;3.72;;;3.80;87.60;;;;;;5002346;28;20041;-66
2023/11/27 00:44:01;;;;;;;5.18;4.00;;;3.80;87.70;;;;;;5004453;28;20030;-65
2023/11/27 00:46:26;;;;;;;4.20;3.38;;;3.80;87.90;;;;;;5002239;28;20512;-65
2023/11/27 00:48:52;;;;;;;6.15;3.72;;;3.90;88.00;;;;;;5002868;28;20076;-64
2023/11/27 00:51:17;;;;;;;4.60;3.70;;;3.80;88.00;;;;;;5002476;28;20026;-66
2023/11/27 00:53:43;;;;;;;5.18;3.78;;;3.90;88.00;;;;;;5002948;28;20453;-64
2023/11/27 00:56:09;;;;;;;5.10;3.63;;;3.90;87.90;;;;;;4999973;28;20437;-65
2023/11/27 00:58:35;;;;;;;4.63;3.55;;;3.90;87.90;;;;;;5000457;28;20034;-66
2023/11/27 01:01:01;;;;;;;4.55;3.58;;;3.90;87.80;;;;;;5000724;28;20037;-65
2023/11/27 01:03:27;;;;;;;6.68;3.95;;;3.90;87.90;;;;;;5000484;28;20120;-65
2023/11/27 01:05:55;;;;;;;5.88;3.75;;;3.90;87.70;;;;;;5004910;28;20058;-65
2023/11/27 01:08:21;;;;;;;4.80;3.72;;;4.00;87.90;;;;;;5001643;28;20038;-65
2023/11/27 01:10:47;;;;;;;5.03;3.92;;;4.00;87.70;;;;;;5002775;28;20037;-65
2023/11/27 01:13:12;;;;;;;6.15;3.80;;;4.00;87.70;;;;;;4998159;28;20046;-65
2023/11/27 01:15:38;;;;;;;5.43;3.65;;;4.00;87.70;;;;;;5002639;28;20049;-65
2023/11/27 01:18:04;;;;;;;6.30;3.80;;;4.00;87.70;;;;;;5000913;28;20941;-65
2023/11/27 01:20:29;;;;;;;5.30;3.72;;;4.00;87.60;;;;;;4998810;28;20044;-65
2023/11/27 01:22:55;;;;;;;4.40;3.38;;;4.00;87.60;;;;;;5000640;28;20884;-65
2023/11/27 01:25:21;;;;;;;5.82;3.60;;;3.90;87.60;;;;;;5002994;28;20073;-64
2023/11/27 01:27:47;;;;;;;6.20;4.30;;;3.90;87.70;;;;;;5002231;28;20394;-65
2023/11/27 01:30:14;;;;;;;7.10;4.20;;;3.90;87.80;;;;;;5002638;28;20061;-65
2023/11/27 01:32:42;;;;;;;6.35;4.75;;;3.90;88.00;;;;;;5001551;28;20601;-65
2023/11/27 01:35:08;;;;;;;5.55;4.63;;;3.80;88.00;;;;;;5001914;28;20128;-64
2023/11/27 01:37:34;;;;;;;7.45;5.38;;;3.80;88.10;;;;;;5002390;28;20040;-65
2023/11/27 01:39:59;;;;;;;7.97;5.10;;;3.70;88.20;;;;;;5001895;28;20512;-64
2023/11/27 01:42:25;;;;;;;7.95;5.10;;;3.70;88.30;;;;;;4999592;28;20038;-65
2023/11/27 01:44:51;;;;;;;10.15;5.78;;;3.60;88.40;;;;;;4999860;28;20053;-66
2023/11/27 01:47:17;;;;;;;6.93;5.18;;;3.70;88.50;;;;;;5001463;28;20655;-64
2023/11/27 01:49:46;;;;;;;8.75;5.85;;;3.60;88.50;;;;;;5000347;28;20045;-65
2023/11/27 01:52:14;;;;;;;6.85;5.68;;;3.60;88.60;;;;;;4999658;28;20041;-64
2023/11/27 01:54:40;;;;;;;8.68;5.47;;;3.60;88.70;;;;;;5002660;28;20080;-64
2023/11/27 01:57:11;;;;;;;9.35;5.53;;;3.50;88.70;;;;;;5001167;28;20035;-65
2023/11/27 01:59:37;;;;;;;8.05;5.32;;;3.50;88.80;;;;;;5001826;28;20038;-65
2023/11/27 02:02:02;;;;;;;9.40;5.30;;;3.50;88.70;;;;;;4998265;28;20044;-65
2023/11/27 02:04:28;;;;;;;7.55;5.70;;;3.50;88.80;;;;;;4999628;28;20042;-65
2023/11/27 02:06:54;;;;;;;7.72;5.88;;;3.50;88.90;;;;;;5002618;28;20445;-65
2023/11/27 02:09:19;;;;;;;6.75;5.47;;;3.50;88.90;;;;;;5000811;28;20038;-65
2023/11/27 02:11:50;;;;;;;8.68;5.70;;;3.50;88.90;;;;;;5001266;28;20038;-65
2023/11/27 02:14:18;;;;;;;8.00;5.63;;;3.50;89.00;;;;;;4999179;28;20549;-65
2023/11/27 02:16:48;;;;;;;6.32;5.38;;;3.50;89.00;;;;;;5002016;28;20124;-65
2023/11/27 02:19:14;;;;;;;9.75;6.00;;;3.40;89.10;;;;;;5000940;28;20045;-65
2023/11/27 02:21:40;;;;;;;6.95;5.45;;;3.40;89.10;;;;;;5004824;28;20457;-66
2023/11/27 02:24:06;;;;;;;7.80;5.35;;;3.40;89.10;;;;;;5005559;28;20390;-65
2023/11/27 02:26:32;;;;;;;7.18;5.47;;;3.50;89.30;;;;;;5003328;28;20041;-65
2023/11/27 02:28:57;;;;;;;8.05;5.70;;;3.50;89.50;;;;;;5005746;28;20053;-64
2023/11/27 02:31:23;;;;;;;7.63;5.53;;;3.60;89.60;;;;;;5000405;28;20037;-65
2023/11/27 02:33:48;;;;;;;7.05;5.72;;;3.60;89.40;;;;;;5003591;28;20072;-65
2023/11/27 02:36:14;;;;;;;8.32;5.72;;;3.70;89.40;;;;;;5003596;28;20575;-65
2023/11/27 02:38:40;;;;;;;7.72;5.60;;;3.60;89.30;;;;;;5002284;28;20145;-65
2023/11/27 02:41:06;;;;;;;7.50;5.35;;;3.70;89.30;;;;;;5004599;28;20081;-65
2023/11/27 02:43:31;;;;;;;8.75;5.68;;;3.70;89.10;;;;;;5004909;28;20030;-65
2023/11/27 02:45:57;;;;;;;7.43;5.60;;;3.80;89.10;;;;;;5000529;28;20091;-65
2023/11/27 02:48:23;;;;;;;7.15;5.53;;;3.80;88.90;;;;;;5003649;28;20038;-65
2023/11/27 02:50:48;;;;;;;7.75;5.88;;;3.80;88.90;;;;;;5004526;28;20455;-65
2023/11/27 02:53:14;;;;;;;7.25;5.50;;;3.80;88.70;;;;;;5003845;28;20049;-65
2023/11/27 02:55:40;;;;;;;7.65;5.03;;;3.80;88.60;;;;;;5003625;28;20030;-65
2023/11/27 02:58:07;;;;;;;7.72;5.38;;;3.90;88.60;;;;;;5002490;28;20045;-65
2023/11/27 03:00:33;;;;;;;7.22;5.40;;;3.70;88.40;;;;;;5006048;28;20436;-65
2023/11/27 03:02:59;;;;;;;7.32;5.60;;;3.80;88.40;;;;;;5003807;28;20033;-65
2023/11/27 03:05:24;;;;;;;6.82;5.18;;;3.80;88.30;;;;;;5004390;28;20034;-65
2023/11/27 03:07:50;;;;;;;7.00;5.47;;;3.70;88.20;;;;;;5003901;28;20089;-65
2023/11/27 03:10:16;;;;;;;8.60;6.25;;;3.70;88.10;;;;;;4985240;28;20174;-64
2023/11/27 03:12:42;;;;;;;7.90;5.45;;;3.70;88.20;;;;;;5000380;28;20490;-65
2023/11/27 03:15:07;;;;;;;6.13;4.85;;;3.60;88.10;;;;;;5003762;28;20428;-65
2023/11/27 03:17:33;;;;;;;7.47;4.68;;;3.60;88.20;;;;;;4999632;28;20034;-65
2023/11/27 03:19:59;;;;;;;7.57;4.53;;;3.60;88.20;;;;;;5005231;28;20529;-65
2023/11/27 03:22:24;;;;;;;6.57;5.00;;;3.50;88.20;;;;;;5001848;28;20092;-64
2023/11/27 03:24:50;;;;;;;8.10;4.93;;;3.60;88.20;;;;;;5002193;28;20458;-64
2023/11/27 03:27:16;;;;;;;7.60;4.85;;;3.50;88.20;;;;;;5003298;28;20033;-65
2023/11/27 03:29:41;;;;;;;5.75;4.40;;;3.60;88.20;;;;;;5000257;28;20037;-65
2023/11/27 03:32:07;;;;;;;6.72;4.88;;;3.60;88.20;;;;;;5002716;28;20049;-65
2023/11/27 03:34:33;;;;;;;6.70;4.95;;;3.60;88.20;;;;;;5003225;28;20037;-65
2023/11/27 03:36:58;;;;;;;6.65;4.65;;;3.60;88.20;;;;;;5001965;28;20323;-65
2023/11/27 03:39:24;;;;;;;7.28;5.07;;;3.50;88.20;;;;;;5003532;28;20113;-64
2023/11/27 03:41:53;;;;;;;6.80;5.00;;;3.50;88.20;;;;;;5006100;28;20041;-65
2023/11/27 03:44:18;;;;;;;7.72;5.50;;;3.60;88.40;;;;;;5006791;28;20068;-65
2023/11/27 03:46:44;;;;;;;7.90;5.45;;;3.60;88.40;;;;;;5006319;28;20496;-65
2023/11/27 03:49:10;;;;;;;6.53;5.13;;;3.60;88.40;;;;;;5006615;28;20125;-65
2023/11/27 03:51:37;;;;;;;9.05;5.60;;;3.60;88.30;;;;;;5006843;28;20034;-64
2023/11/27 03:54:03;;;;;;;10.00;5.60;;;3.60;88.20;;;;;;5006645;28;20026;-65
2023/11/27 03:56:29;;;;;;;7.07;5.22;;;3.70;88.20;;;;;;5006305;28;20041;-65
2023/11/27 03:58:55;;;;;;;8.93;5.65;;;3.60;88.10;;;;;;5006239;28;20076;-65
2023/11/27 04:01:21;;;;;;;7.00;4.88;;;3.70;88.10;;;;;;5006264;28;20397;-65
2023/11/27 04:03:47;;;;;;;7.00;4.68;;;3.70;88.00;;;;;;4989499;28;20036;-65
2023/11/27 04:06:25;;;;;;;6.70;4.30;;;3.70;87.90;;;;;;5006590;28;20034;-65
2023/11/27 04:08:51;;;;;;;6.03;4.28;;;3.60;87.60;;;;;;5006894;28;20208;-65
2023/11/27 04:11:18;;;;;;;6.18;4.13;;;3.70;87.70;;;;;;5007316;28;20161;-64
2023/11/27 04:13:44;;;;;;;6.03;4.47;;;3.70;87.50;;;;;;5007275;28;20050;-65
2023/11/27 04:16:10;;;;;;;5.20;4.10;;;3.70;87.40;;;;;;5007623;28;20045;-64
2023/11/27 04:18:36;;;;;;;5.97;4.40;;;3.60;87.20;;;;;;5005460;28;20115;-64
2023/11/27 04:21:02;;;;;;;5.70;4.18;;;3.60;87.30;;;;;;5006993;28;20062;-64
2023/11/27 04:23:28;;;;;;;5.45;4.35;;;3.70;87.30;;;;;;5007543;28;20053;-64
2023/11/27 04:25:54;;;;;;;4.70;3.97;;;3.70;87.20;;;;;;5005491;28;20073;-64
2023/11/27 04:28:19;;;;;;;5.53;4.07;;;3.60;87.00;;;;;;4996311;28;20045;-64
2023/11/27 04:30:46;;;;;;;4.35;3.63;;;3.60;86.80;;;;;;5000158;28;20046;-65
2023/11/27 04:33:11;;;;;;;8.25;4.13;;;3.60;86.80;;;;;;4997013;28;20041;-64
2023/11/27 04:35:39;;;;;;;6.25;4.00;;;3.60;86.80;;;;;;4999010;28;20075;-64
2023/11/27 04:38:04;;;;;;;4.05;3.58;;;3.60;87.00;;;;;;4998533;28;20053;-64
2023/11/27 04:40:30;;;;;;;5.07;3.50;;;3.50;86.90;;;;;;4997076;28;20049;-65
2023/11/27 04:42:56;;;;;;;6.18;3.53;;;3.50;86.90;;;;;;4996252;28;20062;-65
2023/11/27 04:45:22;;;;;;;4.00;3.35;;;3.50;87.00;;;;;;4996650;28;20061;-64
2023/11/27 04:47:47;;;;;;;5.72;4.05;;;3.50;87.20;;;;;;4996297;28;20080;-64
2023/11/27 04:50:13;;;;;;;5.85;4.03;;;3.50;87.20;;;;;;4995814;28;20126;-65
2023/11/27 04:52:39;;;;;;;7.05;4.70;;;3.50;87.30;;;;;;5003312;28;20521;-64
2023/11/27 04:55:05;;;;;;;8.35;4.82;;;3.50;87.40;;;;;;5006231;28;20037;-64
2023/11/27 04:57:31;;;;;;;6.22;4.40;;;3.50;87.40;;;;;;5005863;28;20040;-64
2023/11/27 04:59:58;;;;;;;7.70;4.93;;;3.60;87.30;;;;;;4998716;28;20394;-64
2023/11/27 05:02:24;;;;;;;8.70;5.25;;;3.60;87.20;;;;;;4999762;28;20045;-64
2023/11/27 05:04:49;;;;;;;5.28;4.30;;;3.60;86.90;;;;;;4998494;28;20039;-64
2023/11/27 05:07:15;;;;;;;5.63;4.13;;;3.60;86.90;;;;;;5001263;28;20044;-64
2023/11/27 05:09:40;;;;;;;6.30;4.20;;;3.60;86.90;;;;;;5005243;28;20044;-64
2023/11/27 05:12:06;;;;;;;3.97;3.05;;;3.50;86.90;;;;;;5003399;28;20580;-64
2023/11/27 05:14:32;;;;;;;5.70;4.10;;;3.60;86.90;;;;;;5005505;28;20037;-64
2023/11/27 05:16:58;;;;;;;7.07;3.95;;;3.50;86.80;;;;;;5004802;28;20544;-64
2023/11/27 05:19:23;;;;;;;5.07;4.05;;;3.60;86.80;;;;;;5005073;28;20414;-64
2023/11/27 05:21:50;;;;;;;6.07;3.88;;;3.60;86.80;;;;;;5005385;28;20044;-64
2023/11/27 05:24:16;;;;;;;6.00;3.95;;;3.50;86.80;;;;;;5004907;28;20029;-64
2023/11/27 05:26:43;;;;;;;9.90;6.10;;;3.60;86.70;;;;;;5004397;28;20083;-64
2023/11/27 05:29:09;;;;;;;16.25;8.88;;;3.50;86.40;;;;;;5005138;28;20125;-64
2023/11/27 05:31:34;;;;;;;8.95;6.55;;;3.50;86.20;;;;;;5005969;28;20034;-63
2023/11/27 05:34:00;;;;;;;11.80;7.38;;;3.50;86.10;;;;;;5004872;28;20120;-64
2023/11/27 05:36:26;;;;;;;10.50;7.70;;;3.40;86.10;;;;;;5005320;28;20506;-63
2023/11/27 05:38:51;;;;;;;11.35;7.35;;;3.30;86.30;;;;;;5005979;28;20087;-64
2023/11/27 05:41:18;;;;;;;13.25;8.68;;;3.40;86.60;;;;;;5005807;28;20092;-63
2023/11/27 05:43:44;;;;;;;13.75;9.00;;;3.40;86.90;;;;;;5005882;28;20057;-64
2023/11/27 05:46:10;;;;;;;12.65;8.32;;;3.40;86.90;;;;;;5006118;28;20026;-63
2023/11/27 05:48:36;;;;;;;14.43;8.95;;;3.40;86.90;;;;;;5004903;28;20030;-63
2023/11/27 05:51:02;;;;;;;10.55;7.47;;;3.40;86.80;;;;;;5005574;28;20041;-63
2023/11/27 05:53:28;;;;;;;8.40;6.10;;;3.40;86.80;;;;;;5006277;28;20038;-63
2023/11/27 05:55:53;;;;;;;7.35;5.55;;;3.40;86.70;;;;;;5008338;28;20413;-63
2023/11/27 05:58:20;;;;;;;5.35;4.38;;;3.30;86.70;;;;;;5009564;28;20505;-63
2023/11/27 06:00:45;;;;;;;6.32;4.65;;;3.30;86.80;;;;;;5009250;28;20041;-63
2023/11/27 06:03:12;;;;;;;6.90;4.38;;;3.30;86.80;;;;;;5009648;28;20029;-63
2023/11/27 06:05:37;;;;;;;6.50;4.28;;;3.20;86.80;;;;;;5010021;28;20037;-63
2023/11/27 06:08:03;;;;;;;5.60;4.22;;;3.20;86.90;;;;;;5009435;28;20063;-63
2023/11/27 06:10:29;;;;;;;7.95;5.30;;;3.20;86.90;;;;;;5005689;28;20449;-63
2023/11/27 06:12:55;;;;;;;5.70;4.65;;;3.20;87.00;;;;;;5008451;28;20482;-63
2023/11/27 06:15:21;;;;;;;7.22;4.70;;;3.10;86.90;;;;;;5007556;28;20493;-63
2023/11/27 06:17:46;;;;;;;6.03;4.80;;;3.10;87.00;;;;;;5008702;28;20042;-63
2023/11/27 06:20:14;;;;;;;7.60;4.80;;;3.10;87.00;;;;;;5009661;28;20030;-62
2023/11/27 06:22:39;;;;;;;6.68;4.82;;;3.00;87.00;;;;;;5009070;28;20038;-64
2023/11/27 06:25:07;;;;;;;7.18;4.78;;;3.00;87.20;;;;;;5009242;28;20033;-63
2023/11/27 06:27:32;;;;;;;5.78;4.63;;;2.90;87.20;;;;;;5008986;28;20026;-63
2023/11/27 06:29:58;;;;;;;6.60;5.10;;;2.90;87.30;;;;;;5009250;28;20033;-63
2023/11/27 06:32:24;;;;;;;7.43;5.10;;;2.90;87.50;;;;;;5008285;28;20080;-63
2023/11/27 06:34:50;;;;;;;8.98;5.18;;;2.90;87.50;;;;;;5008142;28;20301;-62
2023/11/27 06:37:16;;;;;;;7.50;5.00;;;2.90;87.70;;;;;;5009281;28;20398;-63
2023/11/27 06:39:42;;;;;;;9.38;5.97;;;2.90;87.90;;;;;;5008603;28;20053;-63
2023/11/27 06:42:12;;;;;;;9.93;5.75;;;2.80;88.70;;;;;;5008875;28;20069;-63
2023/11/27 06:44:38;;;;;;;9.70;5.95;;;2.90;88.00;;;;;;5008572;28;20059;-63
2023/11/27 06:47:04;;;;;;;9.68;5.55;;;2.90;88.00;;;;;;5008287;28;20049;-63
2023/11/27 06:49:30;;;;;;;9.93;5.70;;;2.90;87.90;;;;;;5008556;28;20509;-63
2023/11/27 06:51:56;;;;;;;9.27;5.25;;;2.90;88.00;;;;;;5009123;28;20041;-63
2023/11/27 06:54:21;;;;;;;7.82;5.55;;;2.90;88.10;;;;;;5007726;28;20075;-63
2023/11/27 06:56:47;;;;;;;10.27;6.07;;;2.90;88.20;;;;;;5008247;28;20457;-63
2023/11/27 06:59:12;;;;;;;7.25;5.13;;;2.90;88.10;;;;;;5007353;28;20057;-63
2023/11/27 07:01:41;;;;;;;8.25;5.25;;;2.90;88.00;;;;;;5008526;28;20037;-63
2023/11/27 07:04:07;;;;;;;5.88;4.88;;;2.90;88.80;;;;;;5008747;28;20469;-63
2023/11/27 07:06:35;;;;;;;7.57;4.60;;;2.90;87.80;;;;;;5008182;28;20112;-62
2023/11/27 07:09:04;;;;;;;7.95;4.10;;;2.90;87.70;;;;;;5008043;28;20034;-63
2023/11/27 07:11:31;;;;;;;4.18;3.60;;;3.00;87.70;;;;;;5006027;28;20583;-63
2023/11/27 07:13:56;;;;;;;5.68;4.10;;;2.90;87.60;;;;;;5008932;28;20104;-62
2023/11/27 07:16:22;;;;;;;5.22;3.75;;;2.90;87.70;;;;;;5005345;28;20041;-63
2023/11/27 07:18:47;;;;;;;3.78;3.00;;;2.90;87.60;;;;;;4996862;28;20041;-63
2023/11/27 07:21:13;;;;;;;3.75;2.83;;;2.80;87.50;;;;;;5006978;28;20108;-63
2023/11/27 07:23:40;;;;;;;3.15;2.40;;;2.80;87.50;;;;;;5005623;28;20056;-63
2023/11/27 07:26:10;;;;;;;3.75;2.30;;;2.80;87.50;;;;;;5004647;28;20064;-63
2023/11/27 07:28:40;;;;;;;2.70;2.38;;;2.80;87.50;;;;;;5005030;28;20034;-63
2023/11/27 07:31:06;;;;;;;5.72;2.55;;;2.80;87.50;;;;;;5004666;28;20529;-62
2023/11/27 07:33:33;;;;;;;5.05;2.30;;;2.80;87.40;;;;;;5005829;28;20049;-63
2023/11/27 07:35:59;;;;;;;3.42;2.50;;;2.80;87.30;;;;;;5005600;28;20469;-63
2023/11/27 07:38:25;;;;;;;4.03;2.63;;;2.80;87.30;;;;;;5004875;28;20065;-63
2023/11/27 07:40:52;;;;;;;6.22;2.70;;;2.80;87.30;;;;;;5003570;28;20083;-63
2023/11/27 07:43:18;;;;;;;2.95;2.53;;;2.80;87.30;;;;;;5005531;28;20544;-63
2023/11/27 07:45:43;;;;;;;3.92;2.50;;;2.80;87.30;;;;;;5005575;28;20408;-63
2023/11/27 07:48:09;;;;;;;4.50;2.90;;;2.90;87.40;;;;;;5004197;28;20042;-62
2023/11/27 07:50:36;;;;;;;5.55;2.53;;;2.90;87.40;;;;;;5005143;28;20042;-63
2023/11/27 07:53:03;;;;;;;3.30;2.58;;;2.90;87.30;;;;;;5004378;28;20052;-63
2023/11/27 07:55:28;;;;;;;4.18;2.92;;;2.90;87.20;;;;;;5005475;28;20045;-63
2023/11/27 07:57:54;;;;;;;5.03;2.72;;;3.00;87.20;;;;;;5005821;28;20046;-63
2023/11/27 08:00:20;;;;;;;6.18;2.78;;;2.90;87.20;;;;;;5004305;28;21199;-63
2023/11/27 08:02:47;;;;;;;6.35;2.97;;;2.90;87.20;;;;;;5004406;28;20038;-63
2023/11/27 08:05:15;;;;;;;3.70;3.00;;;2.90;87.20;;;;;;5005498;28;20070;-63
2023/11/27 08:07:40;;;;;;;5.32;3.17;;;3.00;87.20;;;;;;5004944;28;20126;-63
2023/11/27 08:10:08;;;;;;;5.90;3.00;;;3.00;87.20;;;;;;5003188;28;20057;-63
2023/11/27 08:12:36;;;;;;;5.15;3.00;;;3.00;87.20;;;;;;5002909;28;20492;-63
2023/11/27 08:15:04;;;;;;;6.40;2.92;;;3.00;87.20;;;;;;5005833;28;20038;-63
2023/11/27 08:17:29;;;;;;;6.53;3.15;;;3.10;87.20;;;;;;5003958;28;20038;-63
2023/11/27 08:19:55;;;;;;;6.13;3.05;;;3.10;87.20;;;;;;5005479;28;20044;-63
2023/11/27 08:22:21;;;;;;;8.32;3.50;;;3.10;87.10;;;;;;5005669;28;20449;-63
2023/11/27 08:24:47;;;;;;;8.68;4.07;;;3.10;87.00;;;;;;5005588;28;20041;-63
2023/11/27 08:27:14;;;;;;;6.63;4.07;;;3.20;87.00;;;;;;5003549;28;20036;-63
2023/11/27 08:29:40;;;;;;;11.73;4.32;;;3.10;87.00;;;;;;5003443;28;20033;-63
2023/11/27 08:32:06;;;;;;;18.65;4.70;;;3.20;87.00;;;;;;5004541;28;20143;-63
2023/11/27 08:34:33;;;;;;;11.40;4.47;;;3.20;87.00;;;;;;5004401;28;20026;-63
2023/11/27 08:36:59;;;;;;;9.82;4.45;;;3.20;87.00;;;;;;4987587;28;20038;-63
2023/11/27 08:39:25;;;;;;;15.38;4.90;;;3.20;87.00;;;;;;5002524;28;20460;-63
2023/11/27 08:41:51;;;;;;;12.40;3.95;;;3.20;87.10;;;;;;5005508;28;20401;-63
2023/11/27 08:44:18;;;;;;;11.07;4.38;;;3.30;87.10;;;;;;5006138;28;20038;-63
2023/11/27 08:46:43;;;;;;;14.20;4.50;;;3.30;87.10;;;;;;5003089;28;20045;-63
2023/11/27 08:49:10;;;;;;;11.70;4.50;;;3.30;87.10;;;;;;5002089;28;20034;-63
2023/11/27 08:51:36;;;;;;;15.10;4.35;;;3.30;87.00;;;;;;5004699;28;20044;-63
2023/11/27 08:54:02;;;;;;;9.95;4.18;;;3.30;87.00;;;;;;5004056;28;20046;-63
2023/11/27 08:56:33;;;;;;;8.65;4.47;;;3.30;87.10;;;;;;5001556;28;20046;-63
2023/11/27 08:59:00;;;;;;;9.73;4.40;;;3.30;87.20;;;;;;5002892;28;20117;-63
2023/11/27 09:01:26;;;;;;;11.07;4.28;;;3.30;87.20;;;;;;5003086;28;20038;-63
2023/11/27 09:03:52;;;;;;;15.05;4.40;;;3.30;87.20;;;;;;5004832;28;20046;-61
2023/11/27 09:06:19;;;;;;;7.60;4.60;;;3.40;87.20;;;;;;5005201;28;20037;-62
2023/11/27 09:08:45;;;;;;;10.65;4.60;;;3.40;87.30;;;;;;4986499;28;20327;-63
2023/11/27 09:11:11;;;;;;;11.93;6.20;;;3.40;87.30;;;;;;4999726;28;20116;-64
2023/11/27 09:13:37;;;;;;;5.68;3.70;;;3.40;87.50;;;;;;5005895;28;21109;-64
2023/11/27 09:16:03;;;;;;;9.52;3.97;;;3.50;87.50;;;;;;5006152;28;20061;-64
2023/11/27 09:18:29;;;;;;;7.85;4.65;;;3.50;87.50;;;;;;5003363;28;20045;-64
2023/11/27 09:20:54;;;;;;;10.20;5.47;;;3.50;87.60;;;;;;5007811;28;20402;-64
2023/11/27 09:23:20;;;;;;;7.43;5.03;;;3.60;87.70;;;;;;5005208;28;20061;-64
2023/11/27 09:25:46;;;;;;;9.93;5.35;;;3.60;87.60;;;;;;5004126;28;20030;-63
2023/11/27 09:28:11;;;;;;;8.00;4.70;;;3.70;87.70;;;;;;5004436;28;20041;-64
2023/11/27 09:30:37;;;;;;;9.18;4.40;;;3.70;87.50;;;;;;5005391;28;20041;-64
2023/11/27 09:33:04;;;;;;;8.55;4.50;;;3.70;87.50;;;;;;5005668;28;20065;-64
2023/11/27 09:35:29;;;;;;;6.55;4.13;;;3.80;87.50;;;;;;5003993;28;20073;-64
2023/11/27 09:37:55;;;;;;;6.00;4.10;;;3.80;87.40;;;;;;5005447;28;20108;-64
2023/11/27 09:40:21;;;;;;;7.50;4.38;;;3.90;87.40;;;;;;5004409;28;20046;-64
2023/11/27 09:42:47;;;;;;;8.55;4.43;;;3.90;87.30;;;;;;5003568;28;20029;-64
2023/11/27 09:45:13;;;;;;;5.57;4.10;;;4.00;87.30;;;;;;5004042;28;20044;-65
2023/11/27 09:47:43;;;;;;;8.57;4.68;;;4.00;87.30;;;;;;5005333;28;20041;-65
2023/11/27 09:50:12;;;;;;;8.02;4.85;;;4.10;87.30;;;;;;5005379;28;20042;-64
2023/11/27 09:52:59;;;;;;;9.80;4.45;;;4.10;87.10;;;;;;5004921;28;20393;-64
2023/11/27 09:55:28;;;;;;;6.35;4.63;;;4.10;87.00;;;;;;5004135;28;20026;-64
2023/11/27 09:57:54;;;;;;;5.10;3.78;;;4.20;86.80;;;;;;5004104;28;20034;-65
2023/11/27 10:00:21;;;;;;;7.97;4.55;;;4.20;86.80;;;;;;5004605;28;20402;-65
2023/11/27 10:02:50;;;;;;;6.93;4.28;;;4.20;86.80;;;;;;5004613;28;20053;-64
2023/11/27 10:05:21;;;;;;;9.13;4.95;;;4.20;86.60;;;;;;5004899;28;20038;-64
2023/11/27 10:07:51;;;;;;;7.13;4.82;;;4.20;86.60;;;;;;5004120;28;20034;-64
2023/11/27 10:10:25;;;;;;;6.47;4.88;;;4.30;86.80;;;;;;5003296;28;20041;-66
2023/11/27 10:12:55;;;;;;;;;;;4.40;86.80;;;;;;5003423;28;20052;-66
2023/11/27 10:15:21;;;;;;;9.02;5.28;;;4.40;86.60;;;;;;5003610;28;19928;-66
2023/11/27 10:17:47;;;;;;;6.68;5.00;;;4.40;86.60;;;;;;5004252;28;20042;-65
2023/11/27 10:20:14;;;;;;;8.52;5.70;;;4.40;86.30;;;;;;5004038;28;20096;-65
2023/11/27 10:22:41;;;;;;;7.32;5.28;;;4.40;86.30;;;;;;5004560;28;20036;-66
2023/11/27 10:25:08;;;;;;;8.23;5.60;;;4.40;86.50;;;;;;5004211;28;20448;-65
2023/11/27 10:27:34;;;;;;;8.43;5.50;;;4.40;86.30;;;;;;5003657;28;20523;-65
2023/11/27 10:30:01;;;;;;;8.32;5.63;;;4.40;86.30;;;;;;5002696;28;20023;-66
2023/11/27 10:32:27;;;;;;;8.95;5.60;;;4.40;86.30;;;;;;5002680;28;20030;-66
2023/11/27 10:34:53;;;;;;;9.10;5.28;;;4.40;86.40;;;;;;5004711;28;20490;-65
2023/11/27 10:37:19;;;;;;;8.07;5.72;;;4.50;86.50;;;;;;5002507;28;20532;-65
2023/11/27 10:39:51;;;;;;;9.40;5.93;;;4.50;86.50;;;;;;5004751;28;20038;-65
2023/11/27 10:42:18;;;;;;;9.75;6.03;;;4.50;86.40;;;;;;5006559;28;20034;-65
2023/11/27 10:44:48;;;;;;;7.60;5.80;;;4.60;86.50;;;;;;5006081;28;20084;-65
2023/11/27 10:47:14;;;;;;;9.48;6.00;;;4.60;86.30;;;;;;5006911;28;20079;-65
2023/11/27 10:49:40;;;;;;;7.80;6.13;;;4.60;86.20;;;;;;5007793;28;20033;-65
2023/11/27 10:52:09;;;;;;;7.35;5.68;;;4.60;86.10;;;;;;5010159;28;20042;-66
2023/11/27 10:54:38;;;;;;;7.97;5.50;;;4.60;86.00;;;;;;5009920;28;20034;-65
2023/11/27 10:57:06;;;;;;;7.65;5.43;;;4.60;85.90;;;;;;5010075;28;20353;-66
2023/11/27 10:59:33;;;;;;;11.00;6.35;;;4.60;85.80;;;;;;5009837;28;20038;-65
2023/11/27 11:02:02;;;;;;;9.32;5.63;;;4.70;85.80;;;;;;5010369;28;20125;-65
2023/11/27 11:04:55;;;;;;;6.32;5.03;;;4.70;85.60;;;;;;5009408;28;20120;-65
2023/11/27 11:07:36;;;;;;;7.35;5.35;;;4.70;85.40;;;;;;5008843;28;20069;-65
2023/11/27 11:10:06;;;;;;;7.70;5.05;;;4.70;85.40;;;;;;5009394;28;20038;-65
2023/11/27 11:12:32;;;;;;;6.80;5.13;;;4.80;85.70;;;;;;5006784;28;20041;-65
2023/11/27 11:14:59;;;;;;;6.70;5.00;;;4.70;85.60;;;;;;5008993;28;20030;-63
2023/11/27 11:17:25;;;;;;;8.23;5.30;;;4.80;85.80;;;;;;5009391;28;20041;-64
2023/11/27 11:20:13;;;;;;;9.18;5.13;;;4.80;85.60;;;;;;5009633;28;20030;-65
2023/11/27 11:23:04;;;;;;;6.43;4.90;;;4.80;85.40;;;;;;5009609;28;20041;-65
2023/11/27 11:25:45;;;;;;;8.57;4.93;;;4.80;85.30;;;;;;5009963;28;20054;-65
2023/11/27 11:28:21;;;;;;;7.55;5.20;;;4.90;85.30;;;;;;5009286;28;20041;-64
2023/11/27 11:31:15;;;;;;;8.85;5.07;;;4.90;85.20;;;;;;5009529;28;20046;-65
2023/11/27 11:33:41;;;;;;;12.30;5.28;;;4.90;85.00;;;;;;5009229;28;20565;-65
2023/11/27 11:36:07;;;;;;;8.40;5.25;;;4.90;85.40;;;;;;5009826;28;20041;-65
2023/11/27 11:38:33;;;;;;;8.07;5.90;;;4.90;85.40;;;;;;5008281;28;20030;-64
2023/11/27 11:40:59;;;;;;;7.82;5.80;;;4.90;85.40;;;;;;5009475;28;20045;-65
2023/11/27 11:43:27;;;;;;;8.52;5.90;;;5.00;85.40;;;;;;5009189;28;20041;-65
2023/11/27 11:45:55;;;;;;;8.90;5.97;;;5.00;85.40;;;;;;5009325;28;20121;-65
2023/11/27 11:48:36;;;;;;;6.75;5.53;;;5.00;85.40;;;;;;5008717;28;20124;-65
2023/11/27 11:51:12;;;;;;;7.28;5.53;;;5.00;85.10;;;;;;5008676;28;20042;-65
2023/11/27 11:53:42;;;;;;;7.18;5.63;;;5.00;85.30;;;;;;5007868;28;20047;-65
2023/11/27 11:56:19;;;;;;;8.48;6.05;;;5.00;85.20;;;;;;5007666;28;20117;-64
2023/11/27 11:58:59;;;;;;;8.68;5.50;;;5.10;85.20;;;;;;5007664;28;20042;-65
2023/11/27 12:01:27;;;;;;;8.55;5.18;;;5.10;85.10;;;;;;4991702;28;20050;-65
2023/11/27 12:04:04;;;;;;;7.15;5.18;;;5.10;85.30;;;;;;5008903;28;20512;-65
2023/11/27 12:06:31;;;;;;;9.95;5.38;;;5.10;85.40;;;;;;5008438;28;20485;-66
2023/11/27 12:08:58;;;;;;;9.30;5.15;;;5.10;85.40;;;;;;5008561;28;20042;-64
2023/11/27 12:11:24;;;;;;;8.50;5.53;;;5.20;85.40;;;;;;5006601;28;20124;-65
2023/11/27 12:13:51;;;;;;;9.10;5.45;;;5.20;85.40;;;;;;5008911;28;20460;-64
2023/11/27 12:16:17;;;;;;;9.80;5.43;;;5.20;85.10;;;;;;5007297;28;20213;-65
2023/11/27 12:18:44;;;;;;;9.18;5.28;;;5.20;85.10;;;;;;5007304;28;20140;-65
2023/11/27 12:21:11;;;;;;;7.07;5.22;;;5.20;85.10;;;;;;5008677;28;20041;-65
2023/11/27 12:23:40;;;;;;;7.50;5.20;;;5.30;85.10;;;;;;5008124;28;20497;-65
2023/11/27 12:26:07;;;;;;;7.65;4.90;;;5.20;85.00;;;;;;5008366;28;20038;-65
2023/11/27 12:28:34;;;;;;;6.40;4.97;;;5.30;85.10;;;;;;5007952;28;20034;-65
2023/11/27 12:31:01;;;;;;;8.23;5.50;;;5.30;85.20;;;;;;5008307;28;20044;-65
2023/11/27 12:33:30;;;;;;;7.97;5.30;;;5.30;85.10;;;;;;5008657;28;20038;-66
2023/11/27 12:35:56;;;;;;;8.10;5.63;;;5.30;85.10;;;;;;5008156;28;20048;-64
2023/11/27 12:38:24;;;;;;;7.88;5.25;;;5.30;85.20;;;;;;5008329;28;20046;-66
2023/11/27 12:40:51;;;;;;;6.60;4.93;;;5.30;85.10;;;;;;5007892;28;20030;-64
2023/11/27 12:43:18;;;;;;;7.35;5.28;;;5.40;85.20;;;;;;5007647;28;20041;-64
2023/11/27 12:45:44;;;;;;;7.50;5.15;;;5.40;85.30;;;;;;5008138;28;20030;-65
2023/11/27 12:48:09;;;;;;;7.60;5.18;;;5.40;85.30;;;;;;5007802;28;20524;-63
2023/11/27 12:50:40;;;;;;;12.35;5.20;;;5.50;85.30;;;;;;5007715;28;20034;-66
2023/11/27 12:53:07;;;;;;;7.38;5.10;;;5.50;85.10;;;;;;5007828;28;20042;-65